Time;durP1;ratioP1;P1;durP2;ratioP2;P2;SDS_P1;SDS_P2;PMS_P1;PMS_P2;Temp;Humidity;BMP_temperature;BMP_pressure;BME280_temperature;BME280_humidity;BME280_pressure;Samples;Min_cycle;Max_cycle;Signal;HPM_P1;HPM_P2
2024/03/02 00:00:52;;;;;;;7.55;3.83;;;16.80;86.60;;;;;;5050316;28;20017;-45
2024/03/02 00:03:18;;;;;;;7.55;4.10;;;16.80;86.60;;;;;;5050390;28;20029;-45
2024/03/02 00:05:48;;;;;;;6.75;4.00;;;16.80;86.60;;;;;;5050236;28;20033;-45
2024/03/02 00:08:26;;;;;;;8.95;4.35;;;16.80;86.70;;;;;;5050914;28;20029;-45
2024/03/02 00:10:56;;;;;;;6.38;3.95;;;16.80;86.70;;;;;;5053826;28;20043;-44
2024/03/02 00:13:23;;;;;;;6.65;3.72;;;16.80;86.80;;;;;;5054214;28;20013;-45
2024/03/02 00:15:53;;;;;;;5.18;3.55;;;16.80;86.80;;;;;;5053744;28;20021;-45
2024/03/02 00:18:21;;;;;;;6.03;3.63;;;16.80;86.80;;;;;;5053743;28;20017;-45
2024/03/02 00:20:47;;;;;;;5.68;3.70;;;16.80;86.90;;;;;;5053633;28;20025;-44
2024/03/02 00:23:18;;;;;;;5.97;3.50;;;16.80;87.00;;;;;;5053691;28;20029;-45
2024/03/02 00:25:48;;;;;;;5.30;3.40;;;16.80;87.00;;;;;;5053785;28;20020;-45
2024/03/02 00:28:35;;;;;;;6.25;3.60;;;16.70;87.00;;;;;;5053383;28;20514;-45
2024/03/02 00:31:04;;;;;;;5.05;3.50;;;16.70;87.10;;;;;;5053484;28;20038;-45
2024/03/02 00:33:50;;;;;;;6.40;3.63;;;16.70;87.20;;;;;;5052186;28;20024;-45
2024/03/02 00:36:22;;;;;;;5.75;3.35;;;16.70;87.10;;;;;;5053412;28;20098;-45
2024/03/02 00:38:49;;;;;;;4.47;2.97;;;16.70;87.20;;;;;;5053405;28;20547;-45
2024/03/02 00:41:27;;;;;;;5.47;3.35;;;16.70;87.20;;;;;;5053323;28;20124;-44
2024/03/02 00:44:00;;;;;;;5.40;3.42;;;16.70;87.20;;;;;;5053571;28;20392;-45
2024/03/02 00:46:29;;;;;;;5.90;3.28;;;16.70;87.30;;;;;;5053490;28;20137;-44
2024/03/02 00:49:00;;;;;;;5.70;3.60;;;16.70;87.30;;;;;;5053137;28;20029;-45
2024/03/02 00:51:28;;;;;;;5.45;3.55;;;16.70;87.20;;;;;;5053262;28;20143;-44
2024/03/02 00:53:57;;;;;;;5.15;3.35;;;16.70;87.30;;;;;;5053184;28;20100;-45
2024/03/02 00:56:24;;;;;;;5.22;3.38;;;16.70;87.30;;;;;;5052894;28;20527;-45
2024/03/02 00:58:50;;;;;;;5.45;3.42;;;16.70;87.30;;;;;;5053168;28;20124;-45
2024/03/02 01:01:16;;;;;;;4.80;3.50;;;16.70;87.30;;;;;;5053065;28;20040;-45
2024/03/02 01:03:42;;;;;;;5.90;3.80;;;16.70;87.30;;;;;;5053382;28;20036;-43
2024/03/02 01:06:08;;;;;;;4.97;3.42;;;16.70;87.30;;;;;;5053003;28;20055;-45
2024/03/02 01:08:35;;;;;;;5.70;3.63;;;16.70;87.40;;;;;;5052680;28;20479;-45
2024/03/02 01:11:01;;;;;;;6.10;3.40;;;16.70;87.40;;;;;;5052590;28;20044;-45
2024/03/02 01:13:26;;;;;;;5.15;3.40;;;16.70;87.40;;;;;;5052835;28;20032;-45
2024/03/02 01:15:53;;;;;;;4.40;3.08;;;16.70;87.40;;;;;;5052560;28;20039;-45
2024/03/02 01:18:18;;;;;;;7.15;3.40;;;16.60;87.40;;;;;;5052736;28;20104;-44
2024/03/02 01:20:44;;;;;;;5.45;3.60;;;16.70;87.50;;;;;;5051752;28;20455;-44
2024/03/02 01:23:10;;;;;;;4.90;3.17;;;16.60;87.40;;;;;;5052562;28;20032;-45
2024/03/02 01:25:35;;;;;;;5.70;3.88;;;16.60;87.50;;;;;;5052403;28;20031;-44
2024/03/02 01:28:01;;;;;;;5.13;3.10;;;16.60;87.50;;;;;;5052176;28;20067;-44
2024/03/02 01:30:27;;;;;;;4.47;3.15;;;16.60;87.50;;;;;;5052293;28;20047;-45
2024/03/02 01:32:52;;;;;;;4.07;3.17;;;16.60;87.60;;;;;;5052535;28;20033;-45
2024/03/02 01:35:18;;;;;;;5.00;3.30;;;16.60;87.60;;;;;;5052528;28;20060;-46
2024/03/02 01:37:43;;;;;;;4.07;3.03;;;16.60;87.60;;;;;;5052088;28;20039;-45
2024/03/02 01:40:10;;;;;;;4.18;3.03;;;16.60;87.70;;;;;;5052574;28;20021;-45
2024/03/02 01:42:39;;;;;;;4.80;3.22;;;16.60;87.60;;;;;;5052407;28;20033;-44
2024/03/02 01:45:07;;;;;;;4.30;2.83;;;16.60;87.80;;;;;;5052465;28;20025;-45
2024/03/02 01:47:32;;;;;;;5.30;3.30;;;16.60;87.70;;;;;;5052182;28;20494;-45
2024/03/02 01:49:59;;;;;;;4.03;2.85;;;16.60;87.70;;;;;;5052153;28;20033;-45
2024/03/02 01:52:24;;;;;;;3.53;2.75;;;16.60;87.70;;;;;;5052186;28;20506;-44
2024/03/02 01:54:50;;;;;;;4.70;3.17;;;16.60;87.70;;;;;;5051861;28;20033;-45
2024/03/02 01:57:16;;;;;;;5.50;3.10;;;16.60;87.80;;;;;;5051724;28;20036;-45
2024/03/02 01:59:41;;;;;;;3.83;2.75;;;16.60;87.70;;;;;;5051641;28;20100;-45
2024/03/02 02:02:07;;;;;;;4.03;2.83;;;16.60;87.70;;;;;;5051912;28;20071;-46
2024/03/02 02:04:33;;;;;;;4.60;2.88;;;16.60;87.70;;;;;;5051898;28;20051;-45
2024/03/02 02:06:59;;;;;;;3.97;3.03;;;16.60;88.40;;;;;;5051603;28;20463;-45
2024/03/02 02:09:25;;;;;;;4.28;2.95;;;16.60;87.70;;;;;;5051627;28;20103;-44
2024/03/02 02:11:51;;;;;;;3.95;3.10;;;16.60;87.70;;;;;;5051783;28;20116;-45
2024/03/02 02:14:17;;;;;;;4.85;2.85;;;16.50;87.70;;;;;;5051699;28;20130;-45
2024/03/02 02:16:43;;;;;;;4.55;3.10;;;16.50;87.60;;;;;;5052002;28;20029;-41
2024/03/02 02:19:09;;;;;;;4.25;3.35;;;16.50;87.70;;;;;;5051243;28;20025;-45
2024/03/02 02:21:35;;;;;;;4.00;2.90;;;16.50;87.70;;;;;;5052071;28;20490;-45
2024/03/02 02:24:03;;;;;;;4.18;2.80;;;16.50;87.80;;;;;;5051272;28;20033;-45
2024/03/02 02:26:28;;;;;;;3.72;3.03;;;16.50;87.70;;;;;;5049949;28;20067;-45
2024/03/02 02:28:54;;;;;;;2.92;2.33;;;16.50;87.80;;;;;;5051152;28;20056;-44
2024/03/02 02:31:20;;;;;;;4.35;3.20;;;16.60;87.80;;;;;;5051424;28;20104;-45
2024/03/02 02:33:45;;;;;;;3.40;2.67;;;16.50;87.70;;;;;;5051344;28;20055;-45
2024/03/02 02:36:11;;;;;;;3.97;2.72;;;16.50;87.80;;;;;;5051199;28;20057;-43
2024/03/02 02:38:41;;;;;;;3.25;2.63;;;16.50;87.70;;;;;;5051054;28;20488;-45
2024/03/02 02:41:07;;;;;;;4.10;2.95;;;16.50;87.70;;;;;;5050996;28;20021;-44
2024/03/02 02:43:33;;;;;;;3.55;2.83;;;16.50;87.70;;;;;;5051262;28;20032;-44
2024/03/02 02:45:58;;;;;;;3.67;2.88;;;16.50;87.70;;;;;;5051065;28;20504;-45
2024/03/02 02:48:24;;;;;;;5.00;3.55;;;16.50;87.70;;;;;;5050963;28;20028;-45
2024/03/02 02:50:49;;;;;;;3.42;2.65;;;16.60;87.70;;;;;;5051006;28;20104;-45
2024/03/02 02:53:15;;;;;;;3.53;2.63;;;16.50;87.60;;;;;;5050889;28;20547;-45
2024/03/02 02:55:41;;;;;;;4.10;2.80;;;16.60;87.60;;;;;;5050954;28;20017;-44
2024/03/02 02:58:07;;;;;;;4.05;3.10;;;16.60;88.30;;;;;;5050685;28;20060;-45
2024/03/02 03:00:32;;;;;;;3.88;2.95;;;16.60;87.50;;;;;;5051048;28;20099;-45
2024/03/02 03:02:58;;;;;;;4.47;3.15;;;16.60;87.50;;;;;;5050934;28;20398;-45
2024/03/02 03:05:24;;;;;;;4.53;2.88;;;16.50;87.40;;;;;;5050854;28;20072;-45
2024/03/02 03:07:50;;;;;;;3.95;2.90;;;16.50;87.40;;;;;;5050653;28;20509;-46
2024/03/02 03:10:16;;;;;;;3.95;2.70;;;16.50;87.30;;;;;;5050812;28;20029;-46
2024/03/02 03:12:42;;;;;;;4.88;2.88;;;16.50;87.40;;;;;;5051112;28;20391;-45
2024/03/02 03:15:09;;;;;;;3.50;2.75;;;16.50;87.40;;;;;;5050869;28;20031;-46
2024/03/02 03:17:36;;;;;;;3.53;2.80;;;16.50;87.40;;;;;;5050432;28;20100;-45
2024/03/02 03:20:03;;;;;;;3.97;2.80;;;16.50;87.40;;;;;;5050633;28;20056;-46
2024/03/02 03:22:31;;;;;;;3.88;2.60;;;16.50;87.40;;;;;;5050808;28;20101;-45
2024/03/02 03:24:56;;;;;;;4.15;2.90;;;16.50;87.30;;;;;;5050765;28;20056;-45
2024/03/02 03:27:22;;;;;;;3.83;2.80;;;16.50;87.20;;;;;;5050451;28;20057;-46
2024/03/02 03:29:48;;;;;;;3.83;2.70;;;16.50;87.20;;;;;;5050694;28;20498;-46
2024/03/02 03:32:13;;;;;;;3.05;2.45;;;16.40;87.10;;;;;;5049447;28;20071;-46
2024/03/02 03:34:40;;;;;;;4.05;2.80;;;16.40;87.10;;;;;;5051006;28;20024;-46
2024/03/02 03:37:05;;;;;;;2.85;2.50;;;16.40;87.20;;;;;;5050206;28;20404;-46
2024/03/02 03:39:31;;;;;;;3.58;2.80;;;16.30;87.20;;;;;;5049907;28;20471;-45
2024/03/02 03:41:57;;;;;;;3.53;2.38;;;16.20;87.20;;;;;;5050808;28;20467;-46
2024/03/02 03:44:22;;;;;;;3.25;2.95;;;16.20;87.40;;;;;;5053232;28;20020;-46
2024/03/02 03:46:48;;;;;;;3.75;2.83;;;16.10;87.50;;;;;;5054532;28;20025;-45
2024/03/02 03:49:13;;;;;;;3.55;2.65;;;16.00;87.70;;;;;;5054182;28;20100;-45
2024/03/02 03:51:39;;;;;;;2.97;2.30;;;15.90;87.90;;;;;;5054475;28;20433;-46
2024/03/02 03:54:05;;;;;;;3.95;2.78;;;15.80;88.00;;;;;;5054449;28;20033;-46
2024/03/02 03:56:30;;;;;;;3.53;2.70;;;15.80;88.30;;;;;;5054222;28;20102;-45
2024/03/02 03:58:56;;;;;;;3.22;2.50;;;15.70;88.40;;;;;;5054040;28;20021;-45
2024/03/02 04:01:22;;;;;;;3.90;2.92;;;15.60;88.60;;;;;;5054381;28;20559;-46
2024/03/02 04:03:48;;;;;;;4.20;2.85;;;15.50;88.90;;;;;;5054189;28;20108;-45
2024/03/02 04:06:16;;;;;;;3.58;2.75;;;15.40;89.00;;;;;;5054125;28;20033;-46
2024/03/02 04:08:41;;;;;;;3.58;2.63;;;15.30;89.20;;;;;;5053938;28;20541;-46
2024/03/02 04:11:07;;;;;;;3.92;2.75;;;15.20;89.40;;;;;;5053867;28;20063;-46
2024/03/02 04:13:33;;;;;;;3.30;2.50;;;15.10;89.60;;;;;;5053865;28;20017;-45
2024/03/02 04:15:59;;;;;;;3.67;2.67;;;15.10;89.80;;;;;;5053860;28;20033;-46
2024/03/02 04:18:24;;;;;;;3.75;2.83;;;15.00;90.00;;;;;;5053833;28;20032;-46
2024/03/02 04:20:50;;;;;;;3.38;2.50;;;14.90;90.00;;;;;;5053978;28;20032;-45
2024/03/02 04:23:15;;;;;;;5.03;2.60;;;14.90;90.10;;;;;;5052585;28;20613;-46
2024/03/02 04:25:41;;;;;;;3.38;2.63;;;14.80;90.50;;;;;;5053769;28;20025;-46
2024/03/02 04:28:07;;;;;;;4.25;2.78;;;14.70;90.30;;;;;;5053353;28;20111;-45
2024/03/02 04:30:33;;;;;;;3.90;2.40;;;14.70;90.40;;;;;;5053538;28;20037;-45
2024/03/02 04:32:58;;;;;;;3.33;2.70;;;14.60;90.40;;;;;;5053673;28;20035;-46
2024/03/02 04:35:25;;;;;;;3.00;2.70;;;14.50;90.50;;;;;;5053530;28;20021;-46
2024/03/02 04:37:50;;;;;;;3.42;2.60;;;14.50;90.60;;;;;;5053258;28;20021;-45
2024/03/02 04:40:16;;;;;;;3.45;2.35;;;14.40;90.70;;;;;;5052758;28;20028;-45
2024/03/02 04:42:41;;;;;;;5.30;2.75;;;14.30;90.70;;;;;;5053407;28;20028;-46
2024/03/02 04:45:07;;;;;;;4.30;3.08;;;14.20;90.80;;;;;;5053440;28;20547;-44
2024/03/02 04:47:33;;;;;;;3.67;2.92;;;14.20;90.90;;;;;;5053205;28;20025;-46
2024/03/02 04:49:58;;;;;;;4.47;2.67;;;14.10;91.00;;;;;;5053366;28;20041;-46
2024/03/02 04:52:24;;;;;;;3.63;2.72;;;14.10;91.00;;;;;;5053709;28;20108;-46
2024/03/02 04:57:34;;;;;;;3.65;2.75;;;14.00;91.20;;;;;;5053137;28;20781;-45
2024/03/02 05:00:00;;;;;;;3.72;2.70;;;13.90;91.30;;;;;;5053038;28;20033;-45
2024/03/02 05:02:25;;;;;;;3.47;2.58;;;13.80;91.30;;;;;;5053222;28;20051;-46
2024/03/02 05:04:51;;;;;;;4.05;2.58;;;13.80;91.40;;;;;;5053015;28;20043;-45
2024/03/02 05:07:17;;;;;;;3.70;2.80;;;13.70;91.50;;;;;;5053046;28;20505;-44
2024/03/02 05:09:42;;;;;;;2.95;2.60;;;13.70;91.50;;;;;;5052935;28;20021;-44
2024/03/02 05:14:52;;;;;;;2.92;2.55;;;13.60;91.60;;;;;;5052900;28;20075;-45
2024/03/02 05:17:18;;;;;;;3.55;2.67;;;13.60;91.70;;;;;;5052629;28;20406;-45
2024/03/02 05:19:43;;;;;;;4.13;2.78;;;13.50;91.80;;;;;;5052444;28;20029;-46
2024/03/02 05:22:09;;;;;;;3.83;2.70;;;13.50;91.90;;;;;;5052680;28;20060;-46
2024/03/02 05:24:35;;;;;;;2.85;2.55;;;13.40;91.90;;;;;;5052629;28;20525;-46
2024/03/02 05:27:00;;;;;;;3.45;2.72;;;13.40;92.00;;;;;;5052449;28;20029;-46
2024/03/02 05:29:26;;;;;;;4.90;2.50;;;13.40;92.00;;;;;;5052288;28;20437;-44
2024/03/02 05:31:51;;;;;;;5.32;3.08;;;13.30;92.10;;;;;;5052495;28;20497;-45
2024/03/02 05:34:18;;;;;;;2.92;2.55;;;13.20;92.10;;;;;;5052529;28;20029;-44
2024/03/02 05:36:44;;;;;;;3.75;2.83;;;13.20;92.20;;;;;;5052134;28;20427;-46
2024/03/02 05:39:10;;;;;;;3.90;3.00;;;13.20;92.30;;;;;;5051550;28;20112;-46
2024/03/02 05:41:36;;;;;;;3.90;2.40;;;13.10;92.30;;;;;;5052334;28;20023;-44
2024/03/02 05:44:02;;;;;;;4.65;3.20;;;13.10;92.40;;;;;;5052463;28;20021;-46
2024/03/02 05:46:27;;;;;;;3.38;2.90;;;13.10;92.50;;;;;;5053039;28;20425;-45
2024/03/02 05:48:53;;;;;;;4.57;3.03;;;13.10;92.50;;;;;;5052456;28;20028;-45
2024/03/02 05:51:19;;;;;;;3.63;2.78;;;13.00;92.50;;;;;;5052676;28;20131;-46
2024/03/02 05:53:44;;;;;;;4.30;3.10;;;13.00;92.60;;;;;;5052547;28;20517;-46
2024/03/02 05:56:11;;;;;;;6.72;3.28;;;13.00;92.70;;;;;;5052722;28;20033;-46
2024/03/02 06:01:28;;;;;;;;;;;12.90;93.10;;;;;;5052890;28;20090;-45
2024/03/02 06:03:56;;;;;;;4.38;3.08;;;12.80;92.80;;;;;;5053068;28;19908;-44
2024/03/02 06:06:22;;;;;;;3.85;3.03;;;12.80;92.90;;;;;;5051833;28;20025;-44
2024/03/02 06:08:48;;;;;;;4.30;2.95;;;12.80;92.90;;;;;;5051520;28;20039;-45
2024/03/02 06:11:14;;;;;;;4.05;2.97;;;12.80;93.00;;;;;;5051499;28;20029;-45
2024/03/02 06:13:39;;;;;;;5.07;2.80;;;12.80;93.00;;;;;;5051883;28;20017;-45
2024/03/02 06:16:05;;;;;;;3.35;2.63;;;12.80;93.00;;;;;;5051596;28;20491;-46
2024/03/02 06:18:31;;;;;;;3.67;2.83;;;12.80;93.00;;;;;;5051457;28;20021;-46
2024/03/02 06:20:56;;;;;;;3.65;2.85;;;12.80;93.10;;;;;;5051428;28;20372;-46
2024/03/02 06:23:22;;;;;;;3.45;2.65;;;12.70;93.10;;;;;;5051673;28;20493;-45
2024/03/02 06:25:48;;;;;;;4.78;2.90;;;12.70;93.10;;;;;;5051446;28;20103;-46
2024/03/02 06:28:15;;;;;;;3.55;2.88;;;12.70;93.20;;;;;;5051367;28;20087;-45
2024/03/02 06:30:42;;;;;;;3.55;2.78;;;12.70;93.20;;;;;;5051233;28;20027;-46
2024/03/02 06:33:07;;;;;;;3.08;2.50;;;12.70;93.30;;;;;;5051461;28;20036;-45
2024/03/02 06:35:33;;;;;;;3.42;2.70;;;12.70;93.30;;;;;;5051381;28;20071;-45
2024/03/02 06:37:59;;;;;;;3.90;3.17;;;12.70;93.30;;;;;;5051191;28;20480;-46
2024/03/02 06:40:24;;;;;;;3.47;2.90;;;12.70;93.30;;;;;;5051020;28;20017;-46
2024/03/02 06:42:50;;;;;;;3.20;2.78;;;12.80;93.40;;;;;;5051345;28;20446;-45
2024/03/02 06:45:15;;;;;;;3.55;2.97;;;12.80;93.30;;;;;;5051191;28;20107;-46
2024/03/02 06:47:41;;;;;;;4.35;3.50;;;12.80;93.30;;;;;;5050793;28;20033;-44
2024/03/02 06:50:07;;;;;;;4.93;3.40;;;12.90;93.30;;;;;;5050944;28;20512;-44
2024/03/02 06:52:33;;;;;;;5.25;4.32;;;12.90;93.30;;;;;;5051136;28;20546;-45
2024/03/02 06:54:58;;;;;;;7.15;4.60;;;12.90;93.20;;;;;;5051077;28;20117;-45
2024/03/02 06:57:24;;;;;;;5.90;4.30;;;13.00;93.20;;;;;;5050809;28;20033;-46
2024/03/02 06:59:51;;;;;;;4.75;3.67;;;13.10;93.20;;;;;;5050673;28;20074;-45
2024/03/02 07:02:17;;;;;;;4.88;3.65;;;13.10;93.10;;;;;;5051174;28;20552;-45
2024/03/02 07:04:42;;;;;;;4.60;3.38;;;13.10;93.10;;;;;;5051069;28;20021;-46
2024/03/02 07:07:08;;;;;;;6.35;3.50;;;13.20;93.40;;;;;;5050722;28;20051;-45
2024/03/02 07:09:34;;;;;;;4.38;3.30;;;13.20;93.00;;;;;;5050521;28;20095;-46
2024/03/02 07:11:59;;;;;;;4.30;3.10;;;13.30;93.00;;;;;;5050866;28;20029;-44
2024/03/02 07:14:53;;;;;;;4.72;3.17;;;13.30;92.90;;;;;;5050989;28;20117;-46
2024/03/02 07:17:10;;;;;;;4.15;3.38;;;13.40;92.90;;;;;;5050455;28;20163;-44
2024/03/02 07:19:38;;;;;;;4.15;3.17;;;13.50;92.80;;;;;;5053935;28;20104;-46
2024/03/02 07:22:07;;;;;;;4.55;3.60;;;13.50;92.70;;;;;;5054961;28;20477;-45
2024/03/02 07:24:32;;;;;;;6.57;4.18;;;13.50;92.70;;;;;;5054976;28;20060;-46
2024/03/02 07:26:58;;;;;;;5.78;3.80;;;13.60;92.60;;;;;;5054638;28;20114;-46
2024/03/02 07:29:24;;;;;;;5.03;3.55;;;13.70;92.60;;;;;;5054800;28;20033;-46
2024/03/02 07:31:49;;;;;;;4.95;3.13;;;13.70;92.50;;;;;;5054733;28;20017;-46
2024/03/02 07:34:15;;;;;;;4.47;3.58;;;13.80;92.40;;;;;;5054747;28;20029;-45
2024/03/02 07:36:41;;;;;;;4.47;3.47;;;13.80;92.40;;;;;;5054491;28;20449;-44
2024/03/02 07:39:07;;;;;;;3.65;3.00;;;13.90;92.30;;;;;;5054242;28;20028;-46
2024/03/02 07:41:33;;;;;;;4.70;3.17;;;13.90;92.20;;;;;;5054645;28;20024;-46
2024/03/02 07:43:58;;;;;;;3.97;3.10;;;14.00;92.20;;;;;;5055911;28;20025;-46
2024/03/02 07:46:24;;;;;;;3.92;3.08;;;14.00;92.10;;;;;;5056527;28;20029;-46
2024/03/02 07:48:51;;;;;;;3.97;2.95;;;14.10;92.10;;;;;;5055507;28;20029;-44
2024/03/02 07:51:17;;;;;;;4.72;3.63;;;14.10;92.00;;;;;;5054341;28;20047;-46
2024/03/02 07:53:42;;;;;;;4.28;3.20;;;14.20;92.00;;;;;;5054500;28;20056;-46
2024/03/02 07:56:08;;;;;;;3.75;3.20;;;14.20;91.90;;;;;;5054319;28;20395;-46
2024/03/02 07:58:35;;;;;;;4.40;3.15;;;14.30;91.80;;;;;;5054284;28;20020;-46
2024/03/02 08:01:01;;;;;;;4.40;3.20;;;14.30;91.80;;;;;;5054089;28;20017;-46
2024/03/02 08:03:27;;;;;;;4.72;2.92;;;14.40;91.80;;;;;;5054316;28;20013;-46
2024/03/02 08:05:52;;;;;;;4.10;2.78;;;14.40;91.70;;;;;;5054088;28;20028;-45
2024/03/02 08:08:18;;;;;;;3.25;2.63;;;14.50;91.70;;;;;;5053940;28;20459;-46
2024/03/02 08:10:44;;;;;;;3.17;2.53;;;14.60;91.70;;;;;;5054122;28;20028;-46
2024/03/02 08:13:09;;;;;;;4.55;2.80;;;14.60;91.60;;;;;;5053987;28;20060;-46
2024/03/02 08:15:35;;;;;;;3.53;2.55;;;14.70;91.50;;;;;;5054170;28;20029;-46
2024/03/02 08:18:01;;;;;;;3.28;2.60;;;14.80;91.50;;;;;;5053983;28;20112;-46
2024/03/02 08:20:27;;;;;;;3.60;2.70;;;14.80;91.40;;;;;;5053854;28;20037;-46
2024/03/02 08:22:54;;;;;;;3.22;2.30;;;14.90;91.40;;;;;;5053858;28;20013;-45
2024/03/02 08:25:20;;;;;;;2.90;2.20;;;14.90;91.30;;;;;;5054046;28;20135;-45
2024/03/02 08:27:46;;;;;;;3.10;2.50;;;15.00;91.50;;;;;;5053437;28;20052;-46
2024/03/02 08:30:12;;;;;;;2.05;1.85;;;15.10;91.20;;;;;;5053345;28;20561;-46
2024/03/02 08:32:38;;;;;;;3.42;2.60;;;15.20;91.20;;;;;;5053996;28;20029;-47
2024/03/02 08:35:05;;;;;;;3.55;2.40;;;15.20;91.10;;;;;;5053473;28;20035;-43
2024/03/02 08:37:30;;;;;;;2.97;2.17;;;15.30;91.00;;;;;;5051613;28;20052;-46
2024/03/02 08:39:56;;;;;;;3.00;2.30;;;15.40;91.00;;;;;;5053193;28;20029;-46
2024/03/02 08:42:22;;;;;;;3.08;2.20;;;15.50;90.90;;;;;;5053473;28;20438;-46
2024/03/02 08:44:48;;;;;;;3.08;1.95;;;15.50;90.80;;;;;;5053331;28;20036;-46
2024/03/02 08:47:13;;;;;;;3.83;2.35;;;15.60;90.70;;;;;;5053234;28;20086;-46
2024/03/02 08:49:39;;;;;;;3.38;2.85;;;15.70;90.70;;;;;;5052976;28;20061;-46
2024/03/02 08:52:05;;;;;;;9.50;4.22;;;15.80;90.50;;;;;;5053163;28;20040;-45
2024/03/02 08:54:31;;;;;;;5.20;4.10;;;15.90;90.30;;;;;;5053197;28;20025;-45
2024/03/02 08:56:56;;;;;;;4.57;3.40;;;16.00;90.20;;;;;;5053116;28;20075;-45
2024/03/02 08:59:22;;;;;;;5.22;3.80;;;16.00;90.10;;;;;;5052864;28;20025;-46
2024/03/02 09:01:48;;;;;;;4.90;3.47;;;16.20;90.00;;;;;;5053281;28;20142;-45
2024/03/02 09:04:14;;;;;;;5.38;3.97;;;16.30;90.00;;;;;;5053497;28;20021;-46
2024/03/02 09:06:39;;;;;;;4.75;3.38;;;16.40;89.60;;;;;;5053154;28;20028;-44
2024/03/02 09:09:05;;;;;;;5.13;4.07;;;16.50;89.30;;;;;;5052530;28;20051;-46
2024/03/02 09:11:32;;;;;;;4.90;3.70;;;16.50;89.00;;;;;;5052912;28;20021;-45
2024/03/02 09:13:58;;;;;;;3.83;3.38;;;16.60;88.80;;;;;;5052957;28;20032;-46
2024/03/02 09:16:24;;;;;;;3.97;3.17;;;16.80;88.70;;;;;;5052982;28;20024;-45
2024/03/02 09:18:49;;;;;;;5.43;3.35;;;16.90;88.60;;;;;;5052497;28;20044;-46
2024/03/02 09:21:15;;;;;;;6.10;3.00;;;17.00;88.30;;;;;;5052635;28;20475;-46
2024/03/02 09:23:41;;;;;;;4.15;3.20;;;17.10;88.10;;;;;;5052733;28;20025;-45
2024/03/02 09:26:07;;;;;;;3.58;2.90;;;17.20;88.00;;;;;;5052721;28;20024;-46
2024/03/02 09:28:32;;;;;;;3.83;2.80;;;17.30;87.70;;;;;;5052675;28;20036;-46
2024/03/02 09:30:58;;;;;;;3.78;2.47;;;17.40;87.50;;;;;;5052446;28;20514;-46
2024/03/02 09:33:23;;;;;;;3.80;2.80;;;17.50;87.30;;;;;;5052489;28;20025;-45
2024/03/02 09:35:49;;;;;;;3.72;2.58;;;17.60;87.10;;;;;;5052705;28;20025;-46
2024/03/02 09:38:15;;;;;;;3.85;2.42;;;17.70;86.90;;;;;;5052158;28;20029;-46
2024/03/02 09:40:42;;;;;;;2.80;2.42;;;17.80;86.60;;;;;;5051519;28;20022;-46
2024/03/02 09:43:08;;;;;;;4.20;2.47;;;17.90;86.30;;;;;;5052648;28;20035;-46
2024/03/02 09:45:34;;;;;;;3.88;2.33;;;18.10;86.10;;;;;;5052242;28;20105;-47
2024/03/02 09:48:00;;;;;;;2.50;2.00;;;18.10;85.80;;;;;;5051890;28;20112;-45
2024/03/02 09:50:25;;;;;;;2.50;1.90;;;18.20;85.60;;;;;;5052008;28;20051;-46
2024/03/02 09:52:52;;;;;;;3.60;2.22;;;18.30;85.40;;;;;;5052343;28;20100;-45
2024/03/02 09:55:19;;;;;;;2.65;1.92;;;18.50;85.20;;;;;;5052073;28;20380;-46
2024/03/02 09:57:45;;;;;;;2.88;2.00;;;18.50;84.90;;;;;;5050286;28;20506;-46
2024/03/02 10:00:14;;;;;;;2.50;2.08;;;18.70;84.70;;;;;;5051832;28;20029;-45
2024/03/02 10:02:43;;;;;;;2.45;1.80;;;18.70;84.40;;;;;;5051898;28;20017;-46
2024/03/02 10:05:10;;;;;;;2.15;1.70;;;18.80;84.20;;;;;;5051995;28;20435;-46
2024/03/02 10:07:35;;;;;;;1.88;1.60;;;18.90;84.00;;;;;;5051635;28;20032;-46
2024/03/02 10:10:14;;;;;;;2.55;1.60;;;19.00;83.80;;;;;;5051598;28;20032;-46
2024/03/02 10:12:39;;;;;;;2.22;1.52;;;19.10;83.50;;;;;;5051733;28;20029;-47
2024/03/02 10:15:06;;;;;;;2.25;1.77;;;19.10;83.30;;;;;;5051665;28;20032;-46
2024/03/02 10:17:32;;;;;;;2.88;1.70;;;19.20;83.20;;;;;;5051613;28;20040;-46
2024/03/02 10:19:57;;;;;;;2.30;1.50;;;19.30;83.00;;;;;;5051523;28;20025;-46
2024/03/02 10:22:23;;;;;;;2.17;1.58;;;19.30;82.70;;;;;;5051622;28;20113;-46
2024/03/02 10:24:49;;;;;;;2.13;1.70;;;19.40;82.60;;;;;;5051465;28;20095;-46
2024/03/02 10:27:16;;;;;;;1.85;1.50;;;19.50;82.60;;;;;;5051043;28;20483;-45
2024/03/02 10:29:45;;;;;;;1.67;1.20;;;19.50;82.40;;;;;;5051133;28;20041;-46
2024/03/02 10:32:11;;;;;;;2.20;1.40;;;19.60;82.30;;;;;;5051621;28;20029;-46
2024/03/02 10:34:39;;;;;;;2.28;1.60;;;19.70;82.20;;;;;;5050234;28;20041;-46
2024/03/02 10:37:07;;;;;;;1.92;1.50;;;19.70;82.20;;;;;;5051088;28;20035;-46
2024/03/02 10:39:35;;;;;;;4.30;2.00;;;19.70;82.00;;;;;;5050487;28;20035;-45
2024/03/02 10:42:03;;;;;;;3.47;1.80;;;19.80;81.50;;;;;;5051304;28;20020;-46
2024/03/02 10:44:29;;;;;;;2.90;1.75;;;19.90;81.40;;;;;;5051448;28;20025;-47
2024/03/02 10:46:56;;;;;;;2.97;2.10;;;19.90;81.10;;;;;;5050992;28;20056;-44
2024/03/02 10:49:23;;;;;;;2.47;1.67;;;20.00;80.90;;;;;;5051014;28;20040;-46
2024/03/02 10:51:49;;;;;;;2.10;1.58;;;20.10;80.80;;;;;;5051082;28;20107;-46
2024/03/02 10:54:15;;;;;;;2.72;1.60;;;20.20;80.60;;;;;;5051393;28;20065;-47
2024/03/02 10:56:46;;;;;;;4.05;1.55;;;20.30;80.40;;;;;;5050916;28;20025;-46
2024/03/02 10:59:33;;;;;;;4.10;1.60;;;20.40;80.30;;;;;;5050817;28;20021;-46
2024/03/02 11:02:01;;;;;;;1.92;1.48;;;20.50;80.10;;;;;;5051108;28;20219;-46
2024/03/02 11:04:28;;;;;;;2.20;1.70;;;20.60;81.10;;;;;;5051445;28;20371;-47
2024/03/02 11:07:06;;;;;;;3.05;1.50;;;20.60;80.30;;;;;;5051396;28;20166;-46
2024/03/02 11:09:35;;;;;;;2.15;1.50;;;20.60;80.50;;;;;;5050842;28;20059;-47
2024/03/02 11:12:12;;;;;;;1.90;1.33;;;20.60;80.60;;;;;;5050910;28;20029;-47
2024/03/02 11:14:44;;;;;;;2.35;1.30;;;20.70;80.30;;;;;;5050926;28;20021;-45
2024/03/02 11:17:11;;;;;;;3.80;1.38;;;20.90;79.60;;;;;;5050726;28;20079;-45
2024/03/02 11:19:39;;;;;;;2.20;1.50;;;21.00;79.00;;;;;;5050606;28;20047;-47
2024/03/02 11:22:05;;;;;;;1.98;1.35;;;21.10;78.70;;;;;;5051378;28;20033;-45
2024/03/02 11:24:34;;;;;;;3.17;1.30;;;21.30;78.40;;;;;;5051237;28;20027;-46
2024/03/02 11:27:11;;;;;;;3.08;1.60;;;21.30;78.10;;;;;;5050679;28;20033;-47
2024/03/02 11:29:36;;;;;;;1.83;1.15;;;21.40;77.90;;;;;;5050789;28;20055;-47
2024/03/02 11:32:03;;;;;;;3.70;1.60;;;21.40;77.70;;;;;;5050828;28;20131;-45
2024/03/02 11:34:39;;;;;;;1.67;1.25;;;21.50;78.30;;;;;;5050543;28;20064;-47
2024/03/02 11:37:05;;;;;;;2.42;1.30;;;21.60;77.40;;;;;;5050502;28;20024;-45
2024/03/02 11:39:30;;;;;;;2.42;1.40;;;21.60;77.30;;;;;;5049770;28;20075;-46
2024/03/02 11:41:57;;;;;;;1.30;1.17;;;21.60;77.10;;;;;;5050941;28;20132;-46
2024/03/02 11:44:26;;;;;;;2.60;1.38;;;21.70;77.00;;;;;;5050469;28;20414;-47
2024/03/02 11:46:58;;;;;;;1.75;1.10;;;21.70;76.90;;;;;;5050744;28;20029;-46
2024/03/02 11:49:44;;;;;;;1.58;1.05;;;21.80;77.00;;;;;;5050751;28;20100;-46
2024/03/02 11:52:11;;;;;;;1.38;0.80;;;21.80;76.80;;;;;;5050521;28;20402;-47
2024/03/02 11:54:46;;;;;;;2.47;1.20;;;21.80;76.80;;;;;;5050405;28;20032;-46
2024/03/02 11:57:14;;;;;;;1.80;1.08;;;21.80;76.80;;;;;;5050133;28;20047;-46
2024/03/02 11:59:40;;;;;;;1.88;1.10;;;21.80;76.90;;;;;;5050141;28;20021;-47
2024/03/02 12:02:06;;;;;;;1.38;1.00;;;21.80;77.00;;;;;;5050478;28;20021;-46
2024/03/02 12:04:32;;;;;;;1.00;0.90;;;21.70;78.00;;;;;;5051611;28;20488;-45
2024/03/02 12:07:01;;;;;;;1.50;1.02;;;21.70;77.30;;;;;;5054572;28;20035;-45
2024/03/02 12:09:30;;;;;;;1.42;1.05;;;21.70;77.40;;;;;;5053885;28;20036;-45
2024/03/02 12:12:09;;;;;;;0.70;0.70;;;21.70;77.30;;;;;;5054554;28;20049;-46
2024/03/02 12:14:38;;;;;;;1.45;0.90;;;21.80;77.30;;;;;;5054079;28;20111;-46
2024/03/02 12:17:05;;;;;;;1.25;0.80;;;21.80;77.20;;;;;;5053986;28;20036;-47
2024/03/02 12:19:32;;;;;;;1.40;0.80;;;21.90;77.20;;;;;;5053566;28;20087;-46
2024/03/02 12:21:58;;;;;;;1.50;1.02;;;21.90;77.00;;;;;;5054050;28;20425;-46
2024/03/02 12:24:26;;;;;;;1.35;0.90;;;22.00;77.00;;;;;;5053764;28;20132;-46
2024/03/02 12:26:52;;;;;;;1.08;0.70;;;22.00;76.80;;;;;;5053691;28;20036;-46
2024/03/02 12:29:20;;;;;;;1.02;0.70;;;22.00;76.70;;;;;;5053781;28;20041;-47
2024/03/02 12:31:48;;;;;;;1.40;0.60;;;22.10;76.60;;;;;;5053701;28;20547;-45
2024/03/02 12:34:15;;;;;;;1.13;0.90;;;22.20;76.50;;;;;;5062490;28;20040;-45
2024/03/02 12:36:41;;;;;;;1.10;0.68;;;22.20;76.40;;;;;;5063417;28;20017;-46
2024/03/02 12:39:10;;;;;;;1.27;0.75;;;22.20;76.30;;;;;;5058329;28;20020;-47
2024/03/02 12:41:37;;;;;;;0.80;0.52;;;22.20;75.90;;;;;;5069912;28;20441;-46
2024/03/02 12:44:04;;;;;;;0.80;0.60;;;22.30;75.70;;;;;;5073677;28;20035;-46
2024/03/02 12:46:30;;;;;;;0.90;0.50;;;22.30;75.50;;;;;;5073719;28;20028;-47
2024/03/02 12:48:56;;;;;;;1.00;0.60;;;22.40;75.40;;;;;;5073392;28;20024;-46
2024/03/02 12:51:21;;;;;;;0.60;0.35;;;22.40;75.40;;;;;;5073267;28;20367;-45
2024/03/02 12:53:54;;;;;;;1.08;0.60;;;22.50;75.30;;;;;;5073276;28;20066;-46